メインページ
METAR-TAF:

METAR-TAF

空港 :

Muir Army Airfield

Fort Indiantown Gap, ペンシルバニア州, アメリカ合衆国

緯度: 40-26N, 経度: 076-34W, 海抜: 149m

現時点の気象観測

当レポートは18分前の15:36(UTC)に作成
南東の風 4kt
気温 -6°C
湿度 86%
気圧 1031 hPa
視程: 2.6km
高度2000ftの曇り
小雪, 靄

METAR: KMUI 181536Z AUTO 14004KT 1 5/8SM -SN BR OVC020 M06/M08 A3044 RMK AO2 VIS 1 1/8V1 5/8 SLP319 $

時間: 10:54 (15:54 UTC)

予報

当レポートは25時間44分前の14:10(UTC)に作成
予報は17日の 14時(UTC)から 18日の 17時(UTC)まで有効
の風 12kt
視程10km以上
高度4000ftの雲は散在している
17日の 14時(UTC)から 17日の 18時(UTC)まで一時的に
の風 12kt、最大25ktの突風を伴う
17日の 17時(UTC)から 17日の 18時(UTC)まで徐々に
の風 9kt
視程10km以上
晴天
17日の 20時(UTC)から 17日の 21時(UTC)まで徐々に
変向風 6kt
視程10km以上
高度24000ftの雲はほとんどない
18日の 11時(UTC)から 18日の 12時(UTC)まで徐々に
南/南東の風 9kt
視程10km以上
高度8000ftの雲はほとんどない
高度13000ftの千切れ雲あり
18日の 14時(UTC)から 18日の 15時(UTC)まで徐々に
南/南東の風 12kt
視程: 2111m
高度1500ftの曇り
小雪

TAF: KMUI 171410Z 1714/1817 35012KT 9999 SCT040 QNH3056INS TEMPO 1714/1718 35012G25KT 510003 BECMG 1717/1718 35009KT 9999 SKC QNH3066INS BECMG 1720/1721 VRB06KT 9999 FEW240 QNH3049INS BECMG 1811/1812 16009KT 9999 FEW080 BKN130 QNH3038INS BECMG 1814/1815 16012KT 8000 -SN OVC015 620159 QNH3022INS TXM01/1720Z TNM05/1714Z LAST NO AMDS AFT 1721 NEXT 2111

4,000以上の空港の気象観測と天気予報(METAR報とTAF報)

利用可能な観測所は地図上に黄色い丸と赤い丸で示す。

丸の上にカーソルを重ねると観測所名を参照できる。

次にクリックすると気象観測と天気予報を参照できる。

マップの切り替え:黒色「×」印の緑ボタンをクリックして拡大、「-」印の緑ボタンをクリックして縮小、緑色の三角印をクリックして隣りの地図に切り替え


METAR-TAF: